sensor_id;sensor_type;location;lat;lon;timestamp;P1;durP1;ratioP1;P2;durP2;ratioP2
10142;SDS011;5112;54.088;13.446;2023-06-10T00:09:48;5.97;;;2.67;;
10142;SDS011;5112;54.088;13.446;2023-06-10T00:19:52;6.20;;;2.70;;
10142;SDS011;5112;54.088;13.446;2023-06-10T00:29:54;4.47;;;2.03;;
10142;SDS011;5112;54.088;13.446;2023-06-10T00:39:57;5.07;;;2.40;;
10142;SDS011;5112;54.088;13.446;2023-06-10T00:49:58;4.30;;;2.13;;
10142;SDS011;5112;54.088;13.446;2023-06-10T01:00:02;5.97;;;2.77;;
10142;SDS011;5112;54.088;13.446;2023-06-10T01:10:09;4.60;;;2.17;;
10142;SDS011;5112;54.088;13.446;2023-06-10T01:20:16;5.97;;;2.57;;
10142;SDS011;5112;54.088;13.446;2023-06-10T01:30:19;5.67;;;2.50;;
10142;SDS011;5112;54.088;13.446;2023-06-10T01:40:29;3.53;;;2.20;;
10142;SDS011;5112;54.088;13.446;2023-06-10T01:50:33;6.53;;;2.53;;
10142;SDS011;5112;54.088;13.446;2023-06-10T02:00:35;6.13;;;2.57;;
10142;SDS011;5112;54.088;13.446;2023-06-10T02:10:38;6.63;;;2.63;;
10142;SDS011;5112;54.088;13.446;2023-06-10T02:20:40;6.37;;;2.80;;
10142;SDS011;5112;54.088;13.446;2023-06-10T02:30:43;9.80;;;3.00;;
10142;SDS011;5112;54.088;13.446;2023-06-10T02:40:46;9.53;;;3.40;;
10142;SDS011;5112;54.088;13.446;2023-06-10T02:50:49;5.23;;;2.77;;
10142;SDS011;5112;54.088;13.446;2023-06-10T03:00:51;7.20;;;2.60;;
10142;SDS011;5112;54.088;13.446;2023-06-10T03:10:54;6.77;;;2.67;;
10142;SDS011;5112;54.088;13.446;2023-06-10T03:20:56;9.33;;;3.20;;
10142;SDS011;5112;54.088;13.446;2023-06-10T03:30:59;5.30;;;2.93;;
10142;SDS011;5112;54.088;13.446;2023-06-10T03:41:01;6.03;;;3.10;;
10142;SDS011;5112;54.088;13.446;2023-06-10T03:51:04;6.50;;;2.93;;
10142;SDS011;5112;54.088;13.446;2023-06-10T04:01:05;6.70;;;3.10;;
10142;SDS011;5112;54.088;13.446;2023-06-10T04:11:08;5.07;;;2.57;;
10142;SDS011;5112;54.088;13.446;2023-06-10T04:21:10;9.30;;;3.20;;
10142;SDS011;5112;54.088;13.446;2023-06-10T04:31:13;8.20;;;3.33;;
10142;SDS011;5112;54.088;13.446;2023-06-10T04:41:15;7.00;;;2.77;;
10142;SDS011;5112;54.088;13.446;2023-06-10T04:51:18;6.57;;;3.43;;
10142;SDS011;5112;54.088;13.446;2023-06-10T05:01:19;6.87;;;3.20;;
10142;SDS011;5112;54.088;13.446;2023-06-10T05:11:22;5.87;;;2.90;;
10142;SDS011;5112;54.088;13.446;2023-06-10T05:21:24;6.93;;;3.30;;
10142;SDS011;5112;54.088;13.446;2023-06-10T05:31:27;5.83;;;3.60;;
10142;SDS011;5112;54.088;13.446;2023-06-10T05:41:29;8.47;;;3.07;;
10142;SDS011;5112;54.088;13.446;2023-06-10T05:51:32;6.50;;;3.50;;
10142;SDS011;5112;54.088;13.446;2023-06-10T06:01:33;5.03;;;3.37;;
10142;SDS011;5112;54.088;13.446;2023-06-10T06:11:36;7.10;;;3.80;;
10142;SDS011;5112;54.088;13.446;2023-06-10T06:21:38;7.60;;;3.63;;
10142;SDS011;5112;54.088;13.446;2023-06-10T06:31:41;6.33;;;3.30;;
10142;SDS011;5112;54.088;13.446;2023-06-10T06:41:43;4.67;;;2.90;;
10142;SDS011;5112;54.088;13.446;2023-06-10T06:51:46;8.00;;;3.93;;
10142;SDS011;5112;54.088;13.446;2023-06-10T07:01:47;6.13;;;3.53;;
10142;SDS011;5112;54.088;13.446;2023-06-10T07:11:51;4.73;;;3.27;;
10142;SDS011;5112;54.088;13.446;2023-06-10T07:21:52;6.00;;;3.87;;
10142;SDS011;5112;54.088;13.446;2023-06-10T07:31:55;7.80;;;3.73;;
10142;SDS011;5112;54.088;13.446;2023-06-10T07:41:57;5.80;;;3.27;;
10142;SDS011;5112;54.088;13.446;2023-06-10T07:52:00;4.87;;;3.43;;
10142;SDS011;5112;54.088;13.446;2023-06-10T08:02:02;5.53;;;3.60;;
10142;SDS011;5112;54.088;13.446;2023-06-10T08:12:05;6.37;;;3.23;;
10142;SDS011;5112;54.088;13.446;2023-06-10T08:22:08;7.00;;;3.20;;
10142;SDS011;5112;54.088;13.446;2023-06-10T08:32:11;5.70;;;3.03;;
10142;SDS011;5112;54.088;13.446;2023-06-10T08:42:16;7.83;;;3.57;;
10142;SDS011;5112;54.088;13.446;2023-06-10T08:52:24;10.17;;;3.47;;
10142;SDS011;5112;54.088;13.446;2023-06-10T09:02:29;9.90;;;2.87;;
10142;SDS011;5112;54.088;13.446;2023-06-10T09:12:36;14.10;;;4.10;;
10142;SDS011;5112;54.088;13.446;2023-06-10T09:22:38;8.43;;;3.13;;
10142;SDS011;5112;54.088;13.446;2023-06-10T09:32:43;9.37;;;2.97;;
10142;SDS011;5112;54.088;13.446;2023-06-10T09:42:45;7.67;;;3.00;;
10142;SDS011;5112;54.088;13.446;2023-06-10T09:52:50;4.27;;;2.57;;
10142;SDS011;5112;54.088;13.446;2023-06-10T10:02:52;6.83;;;3.40;;
10142;SDS011;5112;54.088;13.446;2023-06-10T10:12:56;8.37;;;3.13;;
10142;SDS011;5112;54.088;13.446;2023-06-10T10:22:58;6.50;;;2.83;;
10142;SDS011;5112;54.088;13.446;2023-06-10T10:33:06;5.83;;;3.07;;
10142;SDS011;5112;54.088;13.446;2023-06-10T10:43:13;4.87;;;3.00;;
10142;SDS011;5112;54.088;13.446;2023-06-10T10:53:20;4.93;;;2.63;;
10142;SDS011;5112;54.088;13.446;2023-06-10T11:03:21;7.87;;;3.10;;
10142;SDS011;5112;54.088;13.446;2023-06-10T11:13:25;10.90;;;3.23;;
10142;SDS011;5112;54.088;13.446;2023-06-10T11:23:37;5.47;;;2.87;;
10142;SDS011;5112;54.088;13.446;2023-06-10T11:33:41;6.53;;;2.63;;
10142;SDS011;5112;54.088;13.446;2023-06-10T11:43:43;6.90;;;3.27;;
10142;SDS011;5112;54.088;13.446;2023-06-10T11:53:46;5.57;;;2.83;;
10142;SDS011;5112;54.088;13.446;2023-06-10T12:03:56;8.50;;;3.00;;
10142;SDS011;5112;54.088;13.446;2023-06-10T12:14:00;8.73;;;3.30;;
10142;SDS011;5112;54.088;13.446;2023-06-10T12:24:07;6.57;;;3.30;;
10142;SDS011;5112;54.088;13.446;2023-06-10T12:34:11;5.43;;;2.90;;
10142;SDS011;5112;54.088;13.446;2023-06-10T12:44:13;6.13;;;3.20;;
10142;SDS011;5112;54.088;13.446;2023-06-10T12:54:16;5.10;;;3.00;;
10142;SDS011;5112;54.088;13.446;2023-06-10T13:04:17;6.97;;;3.13;;
10142;SDS011;5112;54.088;13.446;2023-06-10T13:14:22;7.40;;;3.10;;
10142;SDS011;5112;54.088;13.446;2023-06-10T13:24:24;6.23;;;2.83;;
10142;SDS011;5112;54.088;13.446;2023-06-10T13:34:27;7.33;;;2.90;;
10142;SDS011;5112;54.088;13.446;2023-06-10T13:44:29;6.23;;;2.57;;
10142;SDS011;5112;54.088;13.446;2023-06-10T13:54:34;4.73;;;2.57;;
10142;SDS011;5112;54.088;13.446;2023-06-10T14:04:36;8.20;;;2.43;;
10142;SDS011;5112;54.088;13.446;2023-06-10T14:14:39;5.83;;;2.87;;
10142;SDS011;5112;54.088;13.446;2023-06-10T14:24:41;4.53;;;2.70;;
10142;SDS011;5112;54.088;13.446;2023-06-10T14:34:44;6.40;;;2.60;;
10142;SDS011;5112;54.088;13.446;2023-06-10T14:44:47;2.10;;;1.90;;
10142;SDS011;5112;54.088;13.446;2023-06-10T14:54:50;4.60;;;2.03;;
10142;SDS011;5112;54.088;13.446;2023-06-10T15:04:52;10.53;;;2.80;;
10142;SDS011;5112;54.088;13.446;2023-06-10T15:14:55;3.57;;;2.10;;
10142;SDS011;5112;54.088;13.446;2023-06-10T15:24:58;5.20;;;2.50;;
10142;SDS011;5112;54.088;13.446;2023-06-10T15:35:01;6.10;;;2.60;;
10142;SDS011;5112;54.088;13.446;2023-06-10T15:45:02;4.87;;;2.20;;
10142;SDS011;5112;54.088;13.446;2023-06-10T15:55:07;2.70;;;2.00;;
10142;SDS011;5112;54.088;13.446;2023-06-10T16:05:09;5.03;;;2.23;;
10142;SDS011;5112;54.088;13.446;2023-06-10T16:15:12;4.57;;;1.83;;
10142;SDS011;5112;54.088;13.446;2023-06-10T16:25:14;3.00;;;2.10;;
10142;SDS011;5112;54.088;13.446;2023-06-10T16:35:17;4.40;;;2.27;;
10142;SDS011;5112;54.088;13.446;2023-06-10T16:45:19;4.80;;;2.07;;
10142;SDS011;5112;54.088;13.446;2023-06-10T16:55:22;2.80;;;2.23;;
10142;SDS011;5112;54.088;13.446;2023-06-10T17:05:23;3.00;;;2.07;;
10142;SDS011;5112;54.088;13.446;2023-06-10T17:15:26;3.30;;;1.87;;
10142;SDS011;5112;54.088;13.446;2023-06-10T17:25:28;5.87;;;1.93;;
10142;SDS011;5112;54.088;13.446;2023-06-10T17:35:31;5.53;;;2.20;;
10142;SDS011;5112;54.088;13.446;2023-06-10T17:45:33;2.57;;;2.10;;
10142;SDS011;5112;54.088;13.446;2023-06-10T17:55:36;4.77;;;2.03;;
10142;SDS011;5112;54.088;13.446;2023-06-10T18:05:37;3.93;;;1.80;;
10142;SDS011;5112;54.088;13.446;2023-06-10T18:15:40;4.90;;;2.50;;
10142;SDS011;5112;54.088;13.446;2023-06-10T18:25:42;5.27;;;2.07;;
10142;SDS011;5112;54.088;13.446;2023-06-10T18:35:45;3.07;;;1.73;;
10142;SDS011;5112;54.088;13.446;2023-06-10T18:45:47;4.63;;;1.93;;
10142;SDS011;5112;54.088;13.446;2023-06-10T18:55:50;4.10;;;1.73;;
10142;SDS011;5112;54.088;13.446;2023-06-10T19:05:52;3.20;;;1.90;;
10142;SDS011;5112;54.088;13.446;2023-06-10T19:15:55;2.57;;;1.90;;
10142;SDS011;5112;54.088;13.446;2023-06-10T19:25:56;4.30;;;1.87;;
10142;SDS011;5112;54.088;13.446;2023-06-10T19:36:01;3.80;;;1.63;;
10142;SDS011;5112;54.088;13.446;2023-06-10T19:46:02;3.07;;;1.70;;
10142;SDS011;5112;54.088;13.446;2023-06-10T19:56:05;5.93;;;2.40;;
10142;SDS011;5112;54.088;13.446;2023-06-10T20:06:08;2.80;;;2.10;;
10142;SDS011;5112;54.088;13.446;2023-06-10T20:16:11;3.63;;;2.40;;
10142;SDS011;5112;54.088;13.446;2023-06-10T20:26:12;4.33;;;3.03;;
10142;SDS011;5112;54.088;13.446;2023-06-10T20:36:16;3.27;;;2.37;;
10142;SDS011;5112;54.088;13.446;2023-06-10T20:46:19;4.38;;;2.83;;
10142;SDS011;5112;54.088;13.446;2023-06-10T20:56:21;3.47;;;2.37;;
10142;SDS011;5112;54.088;13.446;2023-06-10T21:06:23;3.93;;;2.97;;
10142;SDS011;5112;54.088;13.446;2023-06-10T21:16:26;2.90;;;2.60;;
10142;SDS011;5112;54.088;13.446;2023-06-10T21:26:30;4.23;;;2.60;;
10142;SDS011;5112;54.088;13.446;2023-06-10T21:36:36;5.20;;;2.50;;
10142;SDS011;5112;54.088;13.446;2023-06-10T21:46:37;5.45;;;3.40;;
10142;SDS011;5112;54.088;13.446;2023-06-10T21:56:40;3.83;;;2.80;;
10142;SDS011;5112;54.088;13.446;2023-06-10T22:06:46;4.90;;;2.73;;
10142;SDS011;5112;54.088;13.446;2023-06-10T22:16:49;4.27;;;3.00;;
10142;SDS011;5112;54.088;13.446;2023-06-10T22:26:52;4.83;;;2.90;;
10142;SDS011;5112;54.088;13.446;2023-06-10T22:36:55;3.30;;;2.67;;
10142;SDS011;5112;54.088;13.446;2023-06-10T22:46:56;3.33;;;2.27;;
10142;SDS011;5112;54.088;13.446;2023-06-10T22:57:00;3.63;;;2.60;;
10142;SDS011;5112;54.088;13.446;2023-06-10T23:07:01;5.83;;;3.00;;
10142;SDS011;5112;54.088;13.446;2023-06-10T23:17:04;8.93;;;3.07;;
10142;SDS011;5112;54.088;13.446;2023-06-10T23:27:07;3.77;;;3.00;;
10142;SDS011;5112;54.088;13.446;2023-06-10T23:37:10;5.80;;;2.80;;
10142;SDS011;5112;54.088;13.446;2023-06-10T23:47:12;4.93;;;2.80;;
10142;SDS011;5112;54.088;13.446;2023-06-10T23:57:15;5.10;;;3.27;;
